Time;durP1;ratioP1;P1;durP2;ratioP2;P2;SDS_P1;SDS_P2;PMS_P1;PMS_P2;Temp;Humidity;BMP_temperature;BMP_pressure;BME280_temperature;BME280_humidity;BME280_pressure;Samples;Min_cycle;Max_cycle;Signal;HPM_P1;HPM_P2
2023/09/01 00:01:42;;;;;;;3.73;3.43;;;15.70;99.90;;;;;;5096530;28;20164;-79
2023/09/01 00:04:07;;;;;;;3.90;3.37;;;15.70;99.90;;;;;;5095771;28;20247;-79
2023/09/01 00:06:33;;;;;;;3.83;3.20;;;15.70;99.90;;;;;;5096307;28;20631;-78
2023/09/01 00:08:59;;;;;;;3.73;3.43;;;15.70;99.90;;;;;;5096150;28;20171;-78
2023/09/01 00:11:24;;;;;;;3.27;2.97;;;15.70;99.90;;;;;;5096100;28;20675;-78
2023/09/01 00:13:50;;;;;;;3.77;3.47;;;15.70;99.90;;;;;;5096115;28;20168;-78
2023/09/01 00:16:16;;;;;;;4.53;3.43;;;15.60;99.90;;;;;;5095713;28;20675;-78
2023/09/01 00:18:41;;;;;;;4.43;3.40;;;15.50;99.90;;;;;;5095325;28;20220;-78
2023/09/01 00:21:07;;;;;;;3.90;3.57;;;15.50;99.90;;;;;;5096164;28;20653;-78
2023/09/01 00:23:33;;;;;;;4.00;3.70;;;15.60;99.90;;;;;;5095883;28;20171;-77
2023/09/01 00:26:00;;;;;;;4.73;3.90;;;15.60;99.90;;;;;;5095787;28;20180;-79
2023/09/01 00:28:26;;;;;;;4.27;3.90;;;15.60;99.90;;;;;;5095666;28;20634;-78
2023/09/01 00:30:56;;;;;;;4.27;3.87;;;15.70;99.90;;;;;;5095745;28;20726;-79
2023/09/01 00:33:26;;;;;;;4.93;4.20;;;15.70;99.90;;;;;;5095240;28;20619;-77
2023/09/01 00:35:53;;;;;;;4.20;3.80;;;15.70;99.90;;;;;;5094901;28;20219;-80
2023/09/01 00:38:19;;;;;;;5.23;4.27;;;15.80;99.90;;;;;;5095524;28;20199;-78
2023/09/01 00:40:48;;;;;;;4.40;3.90;;;15.80;99.90;;;;;;5095518;28;20647;-78
2023/09/01 00:43:15;;;;;;;5.50;4.30;;;15.80;99.90;;;;;;5095449;28;20267;-77
2023/09/01 00:45:41;;;;;;;4.07;3.67;;;15.80;99.90;;;;;;5095465;28;20214;-78
2023/09/01 00:48:08;;;;;;;4.97;4.50;;;16.00;99.90;;;;;;5095111;28;20274;-78
2023/09/01 00:50:36;;;;;;;6.00;4.50;;;16.00;99.90;;;;;;5095191;28;20183;-78
2023/09/01 00:53:02;;;;;;;5.33;4.63;;;16.00;99.90;;;;;;5095206;28;20160;-77
2023/09/01 00:55:29;;;;;;;4.77;4.30;;;16.10;99.90;;;;;;5095362;28;20316;-78
2023/09/01 00:57:55;;;;;;;4.80;4.37;;;16.20;99.90;;;;;;5095214;28;20279;-78
2023/09/01 01:00:20;;;;;;;6.60;5.33;;;16.20;99.90;;;;;;5095260;28;20682;-78
2023/09/01 01:02:47;;;;;;;4.97;4.47;;;16.20;99.90;;;;;;5093606;28;20623;-78
2023/09/01 01:05:15;;;;;;;4.83;4.33;;;16.20;99.90;;;;;;5095058;28;20164;-78
2023/09/01 01:08:20;;;;;;;6.43;4.70;;;16.30;99.90;;;;;;5094845;28;20677;-76
2023/09/01 01:10:52;;;;;;;5.50;4.73;;;16.40;99.90;;;;;;5095072;28;20654;-76
2023/09/01 01:13:21;;;;;;;5.33;4.83;;;16.40;99.90;;;;;;5094852;28;20195;-77
2023/09/01 01:15:49;;;;;;;7.17;4.93;;;16.50;99.90;;;;;;5094736;28;20238;-77
2023/09/01 01:18:17;;;;;;;5.97;4.63;;;16.60;99.90;;;;;;5094401;28;20249;-77
2023/09/01 01:20:52;;;;;;;4.80;4.40;;;16.70;99.90;;;;;;5094513;28;20227;-76
2023/09/01 01:23:19;;;;;;;5.70;4.40;;;16.60;99.90;;;;;;5094849;28;20182;-77
2023/09/01 01:25:47;;;;;;;4.70;4.40;;;16.60;99.90;;;;;;5094685;28;20160;-77
2023/09/01 01:28:13;;;;;;;4.80;4.40;;;16.60;99.90;;;;;;5094621;28;20175;-77
2023/09/01 01:30:39;;;;;;;5.33;4.80;;;16.60;99.90;;;;;;5094447;28;20198;-78
2023/09/01 01:33:32;;;;;;;4.57;4.17;;;16.70;99.90;;;;;;5094163;28;20171;-77
2023/09/01 01:36:10;;;;;;;6.00;5.40;;;16.70;99.90;;;;;;5092234;28;20262;-78
2023/09/01 01:38:40;;;;;;;4.93;4.47;;;16.70;99.90;;;;;;5094232;28;20171;-78
2023/09/01 01:41:19;;;;;;;5.83;5.33;;;16.70;99.90;;;;;;5094361;28;20190;-78
2023/09/01 01:43:49;;;;;;;5.70;5.13;;;16.80;99.90;;;;;;5094286;28;20228;-77
2023/09/01 01:46:15;;;;;;;6.53;5.93;;;16.90;99.90;;;;;;5092594;28;20172;-78
2023/09/01 01:48:41;;;;;;;7.43;5.83;;;16.70;99.90;;;;;;5094218;28;20176;-77
2023/09/01 01:51:06;;;;;;;6.83;6.20;;;16.80;99.90;;;;;;5094116;28;20263;-78
2023/09/01 01:53:34;;;;;;;6.40;5.90;;;16.90;99.90;;;;;;5093983;28;20650;-78
2023/09/01 01:56:00;;;;;;;6.80;5.83;;;16.90;99.90;;;;;;5093981;28;20233;-77
2023/09/01 01:58:27;;;;;;;6.23;5.63;;;16.80;99.90;;;;;;5094017;28;20251;-79
2023/09/01 02:00:52;;;;;;;8.00;6.20;;;16.90;99.90;;;;;;5093702;28;20168;-78
2023/09/01 02:03:18;;;;;;;7.15;5.78;;;17.00;99.90;;;;;;5093893;28;20647;-78
2023/09/01 02:05:43;;;;;;;8.23;6.00;;;17.00;99.90;;;;;;5093769;28;20175;-77
2023/09/01 02:08:09;;;;;;;7.93;6.93;;;17.00;99.90;;;;;;5092394;28;20172;-77
2023/09/01 02:10:35;;;;;;;7.13;6.43;;;17.00;99.90;;;;;;5093997;28;20164;-77
2023/09/01 02:13:01;;;;;;;8.80;7.33;;;17.10;99.90;;;;;;5093788;28;20167;-79
2023/09/01 02:15:27;;;;;;;10.30;6.60;;;17.10;99.90;;;;;;5093411;28;20203;-77
2023/09/01 02:17:53;;;;;;;7.77;6.33;;;17.20;99.90;;;;;;5093771;28;20165;-79
2023/09/01 02:20:18;;;;;;;6.80;6.13;;;17.20;99.90;;;;;;5093275;28;20228;-78
2023/09/01 02:22:45;;;;;;;7.53;6.77;;;17.10;99.90;;;;;;5093605;28;20252;-77
2023/09/01 02:25:12;;;;;;;7.73;7.10;;;17.10;99.90;;;;;;5093782;28;20263;-79
2023/09/01 02:27:40;;;;;;;9.60;7.20;;;17.00;99.90;;;;;;5092276;28;20575;-78
2023/09/01 02:30:10;;;;;;;7.33;6.63;;;17.00;99.90;;;;;;5093398;28;20172;-79
2023/09/01 02:32:37;;;;;;;8.20;7.40;;;17.10;99.90;;;;;;5093625;28;20178;-77
2023/09/01 02:35:06;;;;;;;7.73;6.97;;;17.10;99.90;;;;;;5093348;28;20295;-78
2023/09/01 02:37:35;;;;;;;7.63;6.80;;;17.10;99.90;;;;;;5093541;28;20187;-79
2023/09/01 02:40:01;;;;;;;11.90;7.87;;;17.10;99.90;;;;;;5093566;28;20187;-77
2023/09/01 02:42:27;;;;;;;11.10;7.00;;;17.10;99.90;;;;;;5092443;28;20672;-78
2023/09/01 02:44:53;;;;;;;9.03;7.80;;;17.10;99.90;;;;;;5093121;28;20171;-77
2023/09/01 02:47:19;;;;;;;9.17;7.47;;;17.00;99.90;;;;;;5093383;28;20229;-78
2023/09/01 02:49:45;;;;;;;9.73;7.57;;;16.80;99.90;;;;;;5093288;28;20623;-77
2023/09/01 02:52:10;;;;;;;10.87;7.27;;;16.90;99.90;;;;;;5093180;28;20589;-77
2023/09/01 02:54:36;;;;;;;8.87;7.83;;;16.80;99.90;;;;;;5093249;28;20160;-78
2023/09/01 02:57:01;;;;;;;8.57;7.40;;;16.70;99.90;;;;;;5093537;28;20168;-78
2023/09/01 02:59:27;;;;;;;9.03;8.00;;;16.80;99.90;;;;;;5097205;28;20164;-79
2023/09/01 03:01:52;;;;;;;13.43;7.53;;;16.90;99.90;;;;;;5096329;28;20175;-79
2023/09/01 03:04:18;;;;;;;8.47;7.23;;;16.80;99.90;;;;;;5097221;28;20259;-79
2023/09/01 03:06:44;;;;;;;9.23;7.77;;;16.80;99.90;;;;;;5095886;28;20174;-78
2023/09/01 03:09:10;;;;;;;10.13;7.77;;;16.80;99.90;;;;;;5097427;28;20172;-80
2023/09/01 03:11:36;;;;;;;9.60;7.60;;;16.90;99.90;;;;;;5095906;28;20168;-78
2023/09/01 03:14:01;;;;;;;11.67;7.50;;;16.90;99.90;;;;;;5096900;28;20178;-78
2023/09/01 03:16:30;;;;;;;10.20;7.40;;;16.80;99.90;;;;;;5097059;28;20271;-78
2023/09/01 03:18:59;;;;;;;12.13;7.83;;;16.90;99.90;;;;;;5096860;28;20226;-78
2023/09/01 03:21:26;;;;;;;10.30;7.50;;;17.00;99.90;;;;;;5096946;28;20647;-78
2023/09/01 03:23:52;;;;;;;9.27;7.80;;;16.90;99.90;;;;;;5096905;28;20171;-79
2023/09/01 03:26:19;;;;;;;9.53;8.17;;;17.00;99.90;;;;;;5096975;28;20176;-78
2023/09/01 03:28:45;;;;;;;11.97;8.37;;;17.10;99.90;;;;;;5096608;28;20167;-78
2023/09/01 03:31:11;;;;;;;11.10;8.67;;;17.20;99.90;;;;;;5096831;28;20160;-78
2023/09/01 03:33:36;;;;;;;9.30;7.77;;;17.10;99.90;;;;;;5095620;28;20250;-78
2023/09/01 03:36:07;;;;;;;8.40;7.55;;;17.00;99.90;;;;;;5096682;28;20218;-80
2023/09/01 03:38:33;;;;;;;8.50;7.47;;;17.10;99.90;;;;;;5096797;28;20168;-81
2023/09/01 03:41:07;;;;;;;10.47;8.17;;;17.10;99.90;;;;;;5096942;28;20305;-78
2023/09/01 03:43:33;;;;;;;8.57;7.55;;;17.20;99.90;;;;;;5096364;28;20192;-78
2023/09/01 03:45:59;;;;;;;10.13;8.43;;;17.40;99.90;;;;;;5096319;28;20752;-79
2023/09/01 03:48:25;;;;;;;8.73;7.50;;;17.40;99.90;;;;;;5095233;28;20176;-78
2023/09/01 03:51:14;;;;;;;12.20;8.35;;;17.40;99.90;;;;;;5095888;28;20250;-79
2023/09/01 03:53:39;;;;;;;9.43;7.75;;;17.30;99.90;;;;;;5096074;28;20199;-78
2023/09/01 03:56:11;;;;;;;9.33;8.17;;;17.40;99.90;;;;;;5095858;28;20253;-78
2023/09/01 03:58:37;;;;;;;15.13;8.57;;;17.50;99.90;;;;;;5096195;28;20227;-78
2023/09/01 04:01:08;;;;;;;10.25;8.05;;;17.70;99.90;;;;;;5096357;28;20627;-78
2023/09/01 04:03:37;;;;;;;10.02;8.93;;;17.70;99.90;;;;;;5095385;28;20171;-78
2023/09/01 04:06:05;;;;;;;9.23;7.90;;;17.60;99.90;;;;;;5096407;28;20172;-79
2023/09/01 04:08:30;;;;;;;10.18;7.90;;;17.70;99.90;;;;;;5095517;28;20175;-79
2023/09/01 04:10:56;;;;;;;12.32;7.90;;;17.70;99.90;;;;;;5094302;28;20168;-78
2023/09/01 04:13:21;;;;;;;9.93;8.15;;;17.70;99.90;;;;;;5094639;28;20183;-79
2023/09/01 04:15:47;;;;;;;10.63;8.23;;;17.80;99.90;;;;;;5094230;28;20211;-78
2023/09/01 04:18:13;;;;;;;10.52;8.63;;;17.80;99.90;;;;;;5095682;28;20171;-79
2023/09/01 04:20:38;;;;;;;8.85;7.78;;;17.70;99.90;;;;;;5094528;28;20227;-79
2023/09/01 04:23:05;;;;;;;8.98;8.07;;;17.80;99.90;;;;;;5095775;28;20171;-79
2023/09/01 04:25:33;;;;;;;9.70;8.38;;;17.80;99.90;;;;;;5095531;28;20259;-79
2023/09/01 04:27:59;;;;;;;12.05;8.45;;;17.70;99.90;;;;;;5095402;28;20407;-78
2023/09/01 04:30:24;;;;;;;11.00;7.95;;;17.80;99.90;;;;;;5095617;28;20643;-79
2023/09/01 04:32:50;;;;;;;9.85;8.00;;;17.80;99.90;;;;;;5095537;28;20160;-79
2023/09/01 04:35:16;;;;;;;8.38;7.47;;;17.80;99.90;;;;;;5095503;28;20553;-79
2023/09/01 04:37:41;;;;;;;7.95;7.03;;;17.90;99.90;;;;;;5095615;28;20164;-79
2023/09/01 04:40:09;;;;;;;8.80;7.90;;;17.90;99.90;;;;;;5095168;28;20168;-79
2023/09/01 04:42:34;;;;;;;8.33;7.27;;;17.90;99.90;;;;;;5095157;28;20183;-79
2023/09/01 04:45:00;;;;;;;7.38;6.75;;;17.90;99.90;;;;;;5095406;28;20639;-79
2023/09/01 04:47:27;;;;;;;7.50;6.85;;;17.90;99.90;;;;;;5094588;28;20163;-79
2023/09/01 04:49:52;;;;;;;6.63;6.05;;;17.90;99.90;;;;;;5095285;28;20191;-79
2023/09/01 04:52:18;;;;;;;7.63;6.72;;;18.00;99.90;;;;;;5095133;28;20276;-79
2023/09/01 04:54:44;;;;;;;7.40;6.40;;;18.10;99.90;;;;;;5094360;28;20199;-79
2023/09/01 04:57:09;;;;;;;7.95;7.15;;;18.10;99.90;;;;;;5095443;28;20168;-79
2023/09/01 04:59:35;;;;;;;6.57;5.97;;;18.10;99.90;;;;;;5095270;28;20164;-79
2023/09/01 05:02:00;;;;;;;6.60;6.00;;;18.00;99.90;;;;;;5094589;28;20183;-79
2023/09/01 05:04:26;;;;;;;7.10;6.43;;;18.10;99.90;;;;;;5094483;28;20167;-80
2023/09/01 05:06:52;;;;;;;6.68;6.15;;;18.10;99.90;;;;;;5093272;28;20266;-80
2023/09/01 05:09:19;;;;;;;7.75;6.95;;;18.10;99.90;;;;;;5094338;28;20212;-80
2023/09/01 05:11:44;;;;;;;7.03;6.43;;;18.10;99.90;;;;;;5094684;28;20172;-80
2023/09/01 05:14:10;;;;;;;9.32;6.93;;;18.10;99.90;;;;;;5094138;28;20176;-80
2023/09/01 05:16:35;;;;;;;7.13;6.43;;;18.00;99.90;;;;;;5092669;28;20218;-80
2023/09/01 05:19:02;;;;;;;7.40;6.55;;;18.00;99.90;;;;;;5093833;28;20227;-80
2023/09/01 05:21:28;;;;;;;7.10;6.40;;;18.00;99.90;;;;;;5093794;28;20265;-80
2023/09/01 05:23:53;;;;;;;7.43;6.68;;;18.00;99.90;;;;;;5093456;28;20616;-80
2023/09/01 05:26:19;;;;;;;7.95;7.07;;;18.00;99.90;;;;;;5094187;28;20179;-79
2023/09/01 05:28:45;;;;;;;7.57;6.80;;;18.10;99.90;;;;;;5093646;28;20575;-80
2023/09/01 05:31:10;;;;;;;7.22;6.63;;;18.10;99.90;;;;;;5094491;28;20264;-80
2023/09/01 05:33:36;;;;;;;8.18;6.95;;;18.10;99.90;;;;;;5093741;28;20505;-80
2023/09/01 05:36:02;;;;;;;7.57;6.87;;;18.10;99.90;;;;;;5093602;28;20211;-80
2023/09/01 05:38:27;;;;;;;7.43;6.73;;;18.10;99.90;;;;;;5093166;28;20178;-80
2023/09/01 05:40:57;;;;;;;7.73;6.93;;;18.10;99.90;;;;;;5093769;28;20258;-80
2023/09/01 05:43:23;;;;;;;8.13;7.30;;;18.20;99.90;;;;;;5093347;28;20218;-80
2023/09/01 05:45:49;;;;;;;9.52;7.50;;;18.30;99.90;;;;;;5093989;28;20175;-80
2023/09/01 05:48:14;;;;;;;10.90;8.05;;;18.30;99.90;;;;;;5093736;28;20168;-81
2023/09/01 05:50:42;;;;;;;9.30;7.68;;;18.30;99.90;;;;;;5093511;28;20176;-81
2023/09/01 05:53:08;;;;;;;8.85;7.20;;;18.30;99.90;;;;;;5092805;28;20164;-80
2023/09/01 05:55:34;;;;;;;10.27;6.97;;;18.30;99.90;;;;;;5093565;28;20203;-80
2023/09/01 05:57:59;;;;;;;8.20;7.00;;;18.20;99.90;;;;;;5093347;28;20168;-81
2023/09/01 06:00:25;;;;;;;10.98;7.57;;;18.20;99.90;;;;;;5093930;28;20627;-81
2023/09/01 06:02:54;;;;;;;9.95;7.97;;;18.30;99.90;;;;;;5093252;28;20309;-80
2023/09/01 06:05:20;;;;;;;8.02;7.30;;;18.30;99.90;;;;;;5092809;28;20195;-82
2023/09/01 06:07:46;;;;;;;8.07;6.95;;;18.40;99.90;;;;;;5092805;28;20260;-81
2023/09/01 06:10:12;;;;;;;7.43;6.63;;;18.20;99.90;;;;;;5091985;28;20182;-81
2023/09/01 06:12:38;;;;;;;7.60;6.70;;;18.30;99.90;;;;;;5092927;28;20163;-81
2023/09/01 06:15:04;;;;;;;9.57;6.63;;;18.20;99.90;;;;;;5092912;28;20705;-80
2023/09/01 06:17:29;;;;;;;9.20;6.97;;;18.20;99.90;;;;;;5093304;28;20270;-81
2023/09/01 06:19:55;;;;;;;9.20;6.82;;;18.10;99.90;;;;;;5093050;28;20698;-80
2023/09/01 06:22:21;;;;;;;17.35;6.97;;;18.20;99.90;;;;;;5092653;28;20171;-81
2023/09/01 06:24:47;;;;;;;8.60;6.00;;;18.20;99.90;;;;;;5092602;28;20175;-81
2023/09/01 06:27:12;;;;;;;8.90;6.18;;;18.20;99.90;;;;;;5093321;28;20167;-80
2023/09/01 06:29:38;;;;;;;9.43;6.63;;;18.20;99.90;;;;;;5092525;28;20171;-81
2023/09/01 06:32:04;;;;;;;9.07;6.07;;;18.30;99.90;;;;;;5091861;28;20195;-81
2023/09/01 06:34:30;;;;;;;7.65;5.63;;;18.30;99.90;;;;;;5092915;28;20255;-81
2023/09/01 06:36:56;;;;;;;12.07;8.98;;;18.40;99.90;;;;;;5092390;28;20279;-81
2023/09/01 06:39:22;;;;;;;6.63;6.00;;;18.50;99.90;;;;;;5092577;28;20179;-82
2023/09/01 06:41:47;;;;;;;6.68;6.07;;;18.60;99.90;;;;;;5091781;28;20163;-81
2023/09/01 06:44:13;;;;;;;7.10;5.75;;;18.60;99.90;;;;;;5092980;28;20186;-81
2023/09/01 06:46:39;;;;;;;6.88;5.72;;;18.70;99.90;;;;;;5091133;28;20534;-81
2023/09/01 06:49:04;;;;;;;8.68;6.43;;;18.70;99.90;;;;;;5092970;28;20230;-84
2023/09/01 06:51:30;;;;;;;7.68;6.03;;;18.70;99.90;;;;;;5092433;28;20246;-83
2023/09/01 06:53:56;;;;;;;10.13;6.40;;;18.60;99.90;;;;;;5091461;28;20218;-82
2023/09/01 06:56:21;;;;;;;9.48;6.43;;;18.70;99.90;;;;;;5092967;28;20239;-81
2023/09/01 06:58:47;;;;;;;9.10;6.78;;;18.70;99.90;;;;;;5091732;28;20178;-83
2023/09/01 07:01:15;;;;;;;7.18;6.50;;;18.60;99.90;;;;;;5093016;28;20179;-83
2023/09/01 07:03:41;;;;;;;11.75;7.20;;;18.60;99.90;;;;;;5091310;28;20171;-82
2023/09/01 07:06:07;;;;;;;7.22;6.47;;;18.50;99.90;;;;;;5092313;28;20176;-81
2023/09/01 07:08:32;;;;;;;11.55;7.38;;;18.40;99.90;;;;;;5093022;28;20171;-83
2023/09/01 07:11:06;;;;;;;10.40;6.88;;;18.30;99.90;;;;;;5093327;28;20232;-82
2023/09/01 07:13:32;;;;;;;10.05;6.93;;;18.30;99.90;;;;;;5093025;28;20160;-81
2023/09/01 07:15:57;;;;;;;5.95;5.40;;;18.20;99.90;;;;;;5092959;28;20210;-81
2023/09/01 07:18:23;;;;;;;11.60;6.70;;;18.20;99.90;;;;;;5091335;28;20167;-80
2023/09/01 07:20:50;;;;;;;21.60;10.23;;;18.20;99.90;;;;;;5092218;28;20176;-82
2023/09/01 07:23:16;;;;;;;12.00;7.27;;;18.30;99.90;;;;;;5092573;28;20263;-81
2023/09/01 07:25:44;;;;;;;8.68;6.30;;;18.30;99.90;;;;;;5092843;28;20254;-82
2023/09/01 07:28:14;;;;;;;8.05;6.55;;;18.20;99.90;;;;;;5092630;28;20230;-81
2023/09/01 07:30:40;;;;;;;9.70;5.10;;;18.30;99.90;;;;;;5092073;28;20172;-81
2023/09/01 07:33:05;;;;;;;8.02;5.20;;;18.20;99.90;;;;;;5092028;28;20172;-80
2023/09/01 07:35:31;;;;;;;8.57;5.10;;;18.30;99.90;;;;;;5092237;28;20699;-81
2023/09/01 07:37:57;;;;;;;10.50;5.47;;;18.20;99.90;;;;;;5092469;28;20172;-81
2023/09/01 07:40:23;;;;;;;4.83;4.33;;;18.20;99.90;;;;;;5092189;28;20180;-81
2023/09/01 07:42:49;;;;;;;5.40;4.53;;;18.10;99.90;;;;;;5092001;28;20649;-82
2023/09/01 07:45:15;;;;;;;5.10;4.15;;;18.20;99.90;;;;;;5096329;28;20172;-82
2023/09/01 07:47:42;;;;;;;9.75;3.13;;;18.20;99.90;;;;;;5096167;28;20199;-81
2023/09/01 07:50:08;;;;;;;2.85;2.40;;;18.20;99.90;;;;;;5096282;28;20274;-81
2023/09/01 07:52:35;;;;;;;2.67;2.30;;;18.10;99.90;;;;;;5095667;28;20658;-82
2023/09/01 07:55:00;;;;;;;1.50;1.40;;;18.10;99.90;;;;;;5095906;28;20207;-81
2023/09/01 07:57:26;;;;;;;3.43;1.60;;;18.10;99.90;;;;;;5094825;28;20171;-81
2023/09/01 07:59:52;;;;;;;1.73;1.20;;;18.00;99.90;;;;;;5096160;28;20168;-82
2023/09/01 08:02:17;;;;;;;1.98;1.45;;;18.00;99.90;;;;;;5096068;28;20619;-81
2023/09/01 08:04:43;;;;;;;3.47;1.73;;;18.10;99.90;;;;;;5096056;28;20263;-81
2023/09/01 08:07:09;;;;;;;1.00;1.00;;;18.10;99.90;;;;;;5094176;28;20197;-82
2023/09/01 08:09:34;;;;;;;1.15;1.00;;;18.10;99.90;;;;;;5095724;28;20685;-83
2023/09/01 08:12:00;;;;;;;1.47;1.00;;;18.00;99.90;;;;;;5096358;28;20207;-82
2023/09/01 08:14:25;;;;;;;3.55;0.90;;;17.90;99.90;;;;;;5096104;28;20181;-81
2023/09/01 08:16:51;;;;;;;1.30;0.97;;;17.70;99.90;;;;;;5095382;28;20723;-82
2023/09/01 08:19:17;;;;;;;2.90;1.20;;;17.70;99.90;;;;;;5095816;28;20570;-80
2023/09/01 08:21:42;;;;;;;1.93;1.10;;;17.60;99.90;;;;;;5094246;28;20167;-79
2023/09/01 08:24:08;;;;;;;1.60;1.37;;;17.60;99.90;;;;;;5093495;28;20198;-80
2023/09/01 08:26:34;;;;;;;3.93;1.40;;;17.70;99.90;;;;;;5094335;28;20174;-80
2023/09/01 08:28:59;;;;;;;4.43;1.60;;;17.70;99.90;;;;;;5095503;28;20627;-81
2023/09/01 08:31:25;;;;;;;1.10;1.00;;;17.80;99.90;;;;;;5094676;28;20176;-81
2023/09/01 08:33:52;;;;;;;3.00;1.30;;;17.70;99.90;;;;;;5095936;28;20175;-80
2023/09/01 08:36:17;;;;;;;4.00;1.67;;;17.70;99.90;;;;;;5096084;28;20706;-80
2023/09/01 08:38:44;;;;;;;5.53;1.30;;;17.60;99.90;;;;;;5095643;28;20168;-82
2023/09/01 08:41:10;;;;;;;1.73;1.50;;;17.60;99.90;;;;;;5096401;28;20227;-80
2023/09/01 08:43:38;;;;;;;2.17;1.50;;;17.60;99.90;;;;;;5095923;28;20191;-81
2023/09/01 08:46:06;;;;;;;3.23;1.60;;;17.60;99.90;;;;;;5095940;28;20172;-82
2023/09/01 08:48:32;;;;;;;3.33;1.50;;;17.70;99.90;;;;;;5095118;28;20190;-80
2023/09/01 08:50:58;;;;;;;1.13;1.07;;;17.70;99.90;;;;;;5094721;28;20635;-79
2023/09/01 08:53:25;;;;;;;2.77;1.23;;;17.70;99.90;;;;;;5093986;28;20168;-79
2023/09/01 08:55:54;;;;;;;3.33;1.57;;;17.80;99.90;;;;;;5092764;28;20239;-80
2023/09/01 08:58:21;;;;;;;3.10;1.70;;;17.90;99.90;;;;;;5094033;28;20265;-80
2023/09/01 09:00:47;;;;;;;3.07;1.40;;;17.90;99.90;;;;;;5094152;28;20283;-81
2023/09/01 09:03:13;;;;;;;1.90;1.50;;;18.10;99.90;;;;;;5094042;28;20701;-80
2023/09/01 09:05:40;;;;;;;1.70;1.60;;;18.10;99.90;;;;;;5094636;28;20191;-79
2023/09/01 09:08:07;;;;;;;1.83;1.13;;;18.10;99.90;;;;;;5094583;28;20160;-81
2023/09/01 09:10:46;;;;;;;2.90;1.50;;;18.10;99.90;;;;;;5093295;28;20663;-81
2023/09/01 09:13:26;;;;;;;1.75;1.30;;;18.10;99.90;;;;;;5094491;28;20162;-80
2023/09/01 09:16:14;;;;;;;0.80;0.80;;;18.10;99.90;;;;;;5094138;28;20207;-80
2023/09/01 09:18:41;;;;;;;2.17;1.33;;;18.10;99.90;;;;;;5094422;28;20176;-81
2023/09/01 09:21:25;;;;;;;2.43;1.30;;;18.10;99.90;;;;;;5092975;28;20232;-81
2023/09/01 09:23:52;;;;;;;1.30;1.20;;;18.10;99.90;;;;;;5094801;28;20221;-81
2023/09/01 09:26:30;;;;;;;1.37;1.17;;;18.00;99.90;;;;;;5094257;28;20179;-81
2023/09/01 09:29:14;;;;;;;1.20;1.10;;;18.10;99.90;;;;;;5094271;28;20212;-81
2023/09/01 09:31:40;;;;;;;0.85;0.85;;;18.10;99.90;;;;;;5093702;28;20171;-81
2023/09/01 09:34:14;;;;;;;1.55;1.00;;;18.10;99.90;;;;;;5093954;28;20174;-81
2023/09/01 09:36:40;;;;;;;0.90;0.90;;;18.10;99.90;;;;;;5093895;28;20218;-81
2023/09/01 09:39:09;;;;;;;1.77;1.20;;;17.90;99.90;;;;;;5093843;28;20164;-79
2023/09/01 09:41:47;;;;;;;0.90;0.70;;;17.50;99.90;;;;;;5094022;28;20202;-79
2023/09/01 09:44:26;;;;;;;2.13;1.40;;;17.10;99.90;;;;;;5092249;28;20174;-81
2023/09/01 09:46:53;;;;;;;1.20;0.87;;;17.00;99.90;;;;;;5093420;28;20171;-81
2023/09/01 09:49:21;;;;;;;1.13;0.80;;;17.00;99.90;;;;;;5094213;28;20202;-81
2023/09/01 09:51:51;;;;;;;1.63;0.90;;;17.10;99.90;;;;;;5093190;28;20168;-82
2023/09/01 09:54:22;;;;;;;1.40;1.00;;;17.20;99.90;;;;;;5094377;28;20194;-81
2023/09/01 09:56:50;;;;;;;3.50;0.93;;;17.40;99.90;;;;;;5093358;28;20207;-81
2023/09/01 09:59:36;;;;;;;0.80;0.80;;;17.60;99.90;;;;;;5093608;28;20171;-80
2023/09/01 10:02:15;;;;;;;1.17;1.07;;;17.80;99.90;;;;;;5093658;28;20317;-80
2023/09/01 10:04:41;;;;;;;1.07;0.97;;;17.90;99.90;;;;;;5093507;28;20187;-80
2023/09/01 10:07:09;;;;;;;1.50;1.10;;;17.90;99.90;;;;;;5093107;28;20167;-80
2023/09/01 10:09:34;;;;;;;1.80;1.20;;;18.20;99.90;;;;;;5093243;28;20178;-79
2023/09/01 10:12:01;;;;;;;2.22;1.20;;;18.70;99.90;;;;;;5092034;28;20160;-78
2023/09/01 10:14:29;;;;;;;3.85;1.27;;;18.80;99.90;;;;;;5093385;28;20624;-78
2023/09/01 10:16:57;;;;;;;1.80;1.42;;;19.20;99.90;;;;;;5093197;28;20264;-78
2023/09/01 10:19:24;;;;;;;1.40;1.30;;;19.30;99.90;;;;;;5093440;28;20224;-78
2023/09/01 10:21:50;;;;;;;1.23;1.13;;;19.80;99.90;;;;;;5093026;28;20203;-78
2023/09/01 10:24:16;;;;;;;3.20;1.70;;;20.50;99.90;;;;;;5093318;28;20168;-78
2023/09/01 10:26:42;;;;;;;4.15;1.60;;;21.20;99.90;;;;;;5093085;28;20164;-81
2023/09/01 10:29:07;;;;;;;1.98;1.80;;;22.30;99.90;;;;;;5093177;28;20175;-82
2023/09/01 10:31:34;;;;;;;1.45;1.35;;;23.10;99.90;;;;;;5092692;28;20581;-82
2023/09/01 10:34:04;;;;;;;1.70;1.60;;;23.90;99.90;;;;;;5093201;28;20274;-81
2023/09/01 10:36:29;;;;;;;1.52;1.42;;;24.30;99.90;;;;;;5093069;28;20216;-81
2023/09/01 10:39:17;;;;;;;1.58;1.27;;;24.10;99.90;;;;;;5092984;28;20619;-80
2023/09/01 10:41:50;;;;;;;1.40;1.40;;;24.30;99.90;;;;;;5092885;28;20254;-80
2023/09/01 10:44:16;;;;;;;2.60;1.40;;;24.00;99.90;;;;;;5093212;28;20686;-80
2023/09/01 10:46:41;;;;;;;1.88;1.40;;;24.10;99.90;;;;;;5092764;28;20193;-79
2023/09/01 10:49:09;;;;;;;1.40;1.30;;;24.30;99.90;;;;;;5093104;28;20175;-79
2023/09/01 10:51:43;;;;;;;2.08;1.48;;;24.80;99.90;;;;;;5092566;28;20252;-82
2023/09/01 10:54:14;;;;;;;1.65;1.33;;;25.80;99.90;;;;;;5093044;28;20191;-80
2023/09/01 10:57:02;;;;;;;1.85;1.30;;;25.90;99.90;;;;;;5092481;28;20234;-81
2023/09/01 10:59:32;;;;;;;1.30;1.30;;;25.70;99.90;;;;;;5092406;28;20172;-81
2023/09/01 11:02:20;;;;;;;1.10;1.10;;;25.70;99.90;;;;;;5090771;28;20172;-81
2023/09/01 11:04:46;;;;;;;1.10;1.10;;;25.50;99.90;;;;;;5092324;28;20171;-82
2023/09/01 11:07:13;;;;;;;1.23;1.20;;;25.40;99.90;;;;;;5093036;28;20612;-80
2023/09/01 11:09:44;;;;;;;1.65;1.02;;;25.30;99.90;;;;;;5092190;28;20183;-79
2023/09/01 11:12:11;;;;;;;1.48;1.20;;;24.90;99.90;;;;;;5091965;28;20178;-78
2023/09/01 11:15:00;;;;;;;1.10;1.10;;;24.50;99.90;;;;;;5092349;28;20179;-78
2023/09/01 11:17:39;;;;;;;2.55;1.30;;;24.10;99.90;;;;;;5092046;28;20195;-80
2023/09/01 11:20:09;;;;;;;1.60;1.50;;;23.70;99.90;;;;;;5096052;28;20219;-79
2023/09/01 11:22:37;;;;;;;1.70;1.60;;;23.60;99.90;;;;;;5096840;28;20251;-79
2023/09/01 11:25:03;;;;;;;1.70;1.67;;;23.30;99.90;;;;;;5096084;28;20210;-79
2023/09/01 11:27:30;;;;;;;2.15;2.00;;;23.20;99.90;;;;;;5094685;28;20214;-79
2023/09/01 11:29:56;;;;;;;2.17;2.00;;;22.80;99.90;;;;;;5096745;28;20633;-80
2023/09/01 11:32:26;;;;;;;2.25;2.13;;;22.80;99.90;;;;;;5096033;28;20202;-81
2023/09/01 11:34:51;;;;;;;2.53;2.42;;;22.80;99.90;;;;;;5096525;28;20187;-79
2023/09/01 11:37:17;;;;;;;2.70;2.60;;;22.50;99.90;;;;;;5096337;28;20187;-79
2023/09/01 11:39:43;;;;;;;2.67;2.58;;;22.40;99.90;;;;;;5096115;28;20179;-79
2023/09/01 11:42:10;;;;;;;2.30;2.20;;;22.80;99.90;;;;;;5095683;28;20176;-80
2023/09/01 11:44:36;;;;;;;1.90;1.80;;;23.50;99.90;;;;;;5096025;28;20164;-81
2023/09/01 11:47:10;;;;;;;2.58;2.10;;;24.50;99.90;;;;;;5096482;28;20164;-82
2023/09/01 11:49:41;;;;;;;2.70;1.90;;;24.70;99.90;;;;;;5095980;28;20179;-79
2023/09/01 11:52:07;;;;;;;1.60;1.50;;;25.90;99.90;;;;;;5095935;28;20160;-79
2023/09/01 11:54:42;;;;;;;1.20;1.20;;;26.60;99.90;;;;;;5094623;28;20515;-80
2023/09/01 11:57:14;;;;;;;1.83;1.50;;;27.00;99.90;;;;;;5095757;28;20183;-80
2023/09/01 11:59:47;;;;;;;2.80;1.45;;;27.50;99.90;;;;;;5095788;28;20236;-80
2023/09/01 12:02:14;;;;;;;1.30;1.10;;;27.30;99.90;;;;;;5095547;28;20172;-79
2023/09/01 12:04:46;;;;;;;0.90;0.90;;;26.70;99.90;;;;;;5095752;28;20196;-78
2023/09/01 12:07:26;;;;;;;1.13;1.13;;;25.50;99.90;;;;;;5095429;28;20259;-79
2023/09/01 12:09:53;;;;;;;1.15;0.90;;;25.90;99.90;;;;;;5095048;28;20225;-80
2023/09/01 12:12:19;;;;;;;1.95;1.17;;;26.40;99.90;;;;;;5095633;28;20168;-78
2023/09/01 12:14:44;;;;;;;1.38;1.27;;;26.80;99.90;;;;;;5094284;28;20627;-78
2023/09/01 12:17:18;;;;;;;1.48;1.30;;;26.90;99.90;;;;;;5095557;28;20687;-78
2023/09/01 12:19:49;;;;;;;3.80;1.10;;;26.90;99.90;;;;;;5095295;28;20623;-78
2023/09/01 12:22:16;;;;;;;0.80;0.80;;;26.80;99.90;;;;;;5095606;28;20175;-77
2023/09/01 12:24:51;;;;;;;1.73;1.25;;;26.10;99.90;;;;;;5094834;28;20704;-76
2023/09/01 12:27:17;;;;;;;0.90;0.90;;;25.20;99.90;;;;;;5094870;28;20179;-79
2023/09/01 12:29:42;;;;;;;1.08;1.08;;;24.70;99.90;;;;;;5094374;28;20156;-76
2023/09/01 12:32:08;;;;;;;0.95;0.95;;;24.70;99.90;;;;;;5095066;28;20175;-77
2023/09/01 12:34:33;;;;;;;0.95;0.90;;;24.80;99.90;;;;;;5095316;28;20572;-80
2023/09/01 12:36:59;;;;;;;1.30;1.20;;;24.80;99.90;;;;;;5094951;28;20212;-80
2023/09/01 12:39:24;;;;;;;2.00;1.25;;;24.70;99.90;;;;;;5094600;28;20251;-77
2023/09/01 12:41:50;;;;;;;1.85;0.82;;;24.90;99.90;;;;;;5095301;28;20183;-80
2023/09/01 12:44:15;;;;;;;1.88;1.00;;;24.40;99.90;;;;;;5095264;28;20164;-78
2023/09/01 12:46:41;;;;;;;1.27;1.00;;;24.50;99.90;;;;;;5094771;28;20176;-80
2023/09/01 12:49:07;;;;;;;1.38;1.08;;;24.50;99.90;;;;;;5095032;28;20180;-80